Time;durP1;ratioP1;P1;durP2;ratioP2;P2;SDS_P1;SDS_P2;PMS_P1;PMS_P2;Temp;Humidity;BMP_temperature;BMP_pressure;BME280_temperature;BME280_humidity;BME280_pressure;Samples;Min_cycle;Max_cycle;Signal;HPM_P1;HPM_P2
2023/06/29 00:00:58;;;;;;;3.67;3.47;;;;;;;;;;5013710;28;20428;-62
2023/06/29 00:03:25;;;;;;;4.10;3.70;;;;;;;;;;5013840;28;20788;-62
2023/06/29 00:05:51;;;;;;;6.00;3.90;;;;;;;;;;5013781;28;20916;-62
2023/06/29 00:08:17;;;;;;;4.83;3.87;;;;;;;;;;5013488;28;20508;-62
2023/06/29 00:10:43;;;;;;;3.57;3.30;;;;;;;;;;5012420;28;20943;-62
2023/06/29 00:13:12;;;;;;;4.40;3.93;;;;;;;;;;5012475;28;20420;-62
2023/06/29 00:15:38;;;;;;;7.10;4.20;;;;;;;;;;5012327;28;20432;-62
2023/06/29 00:18:04;;;;;;;6.63;3.67;;;;;;;;;;5013764;28;20419;-62
2023/06/29 00:20:30;;;;;;;4.70;3.97;;;;;;;;;;5013810;28;20440;-62
2023/06/29 00:22:57;;;;;;;3.90;3.60;;;;;;;;;;5013523;28;20913;-62
2023/06/29 00:25:25;;;;;;;3.73;3.30;;;;;;;;;;5013306;28;20439;-61
2023/06/29 00:27:51;;;;;;;4.37;3.90;;;;;;;;;;5013656;28;20466;-62
2023/06/29 00:30:17;;;;;;;4.23;3.83;;;;;;;;;;5013323;28;20864;-62
2023/06/29 00:32:43;;;;;;;7.47;3.90;;;;;;;;;;5013549;28;20515;-62
2023/06/29 00:35:09;;;;;;;3.87;3.60;;;;;;;;;;5012054;28;20530;-61
2023/06/29 00:37:35;;;;;;;3.83;3.60;;;;;;;;;;5013173;28;20454;-62
2023/06/29 00:40:02;;;;;;;4.10;3.33;;;;;;;;;;5013223;28;20430;-62
2023/06/29 00:42:28;;;;;;;6.03;4.03;;;;;;;;;;5013284;28;20431;-59
2023/06/29 00:44:54;;;;;;;4.10;3.47;;;;;;;;;;5013192;28;20430;-59
2023/06/29 00:47:22;;;;;;;5.60;3.50;;;;;;;;;;5012654;28;20423;-61
2023/06/29 00:49:48;;;;;;;3.63;3.43;;;;;;;;;;5013079;28;20572;-62
2023/06/29 00:52:14;;;;;;;4.07;3.77;;;;;;;;;;5013059;28;20479;-62
2023/06/29 00:54:40;;;;;;;4.23;3.97;;;;;;;;;;5013034;28;20405;-61
2023/06/29 00:57:08;;;;;;;3.70;3.60;;;;;;;;;;5013102;28;20408;-61
2023/06/29 00:59:34;;;;;;;3.67;3.47;;;;;;;;;;5012932;28;20910;-61
2023/06/29 01:02:00;;;;;;;4.17;3.43;;;;;;;;;;5012999;28;20421;-61
2023/06/29 01:04:27;;;;;;;4.00;3.80;;;;;;;;;;5011648;28;20429;-62
2023/06/29 01:07:03;;;;;;;4.63;4.30;;;;;;;;;;5012843;28;20471;-61
2023/06/29 01:09:32;;;;;;;5.63;4.20;;;;;;;;;;5012581;28;20477;-61
2023/06/29 01:11:59;;;;;;;4.80;4.40;;;;;;;;;;5012831;28;20781;-61
2023/06/29 01:14:25;;;;;;;4.83;4.40;;;;;;;;;;5012744;28;20422;-61
2023/06/29 01:16:52;;;;;;;7.07;5.07;;;;;;;;;;5012796;28;20447;-61
2023/06/29 01:19:21;;;;;;;4.03;3.63;;;;;;;;;;5011561;28;20436;-61
2023/06/29 01:22:02;;;;;;;6.40;4.77;;;;;;;;;;5012830;28;20439;-61
2023/06/29 01:24:31;;;;;;;4.33;4.13;;;;;;;;;;5012736;28;20421;-61
2023/06/29 01:26:57;;;;;;;4.23;3.93;;;;;;;;;;5012802;28;20507;-61
2023/06/29 01:29:24;;;;;;;5.30;4.57;;;;;;;;;;5012580;28;20460;-61
2023/06/29 01:31:53;;;;;;;5.13;4.07;;;;;;;;;;5012826;28;20397;-61
2023/06/29 01:34:19;;;;;;;5.13;4.83;;;;;;;;;;5012598;28;20495;-61
2023/06/29 01:36:51;;;;;;;4.57;4.13;;;;;;;;;;5012645;28;20823;-61
2023/06/29 01:39:21;;;;;;;7.90;4.27;;;;;;;;;;5012784;28;20420;-61
2023/06/29 01:41:48;;;;;;;9.23;4.20;;;;;;;;;;5012580;28;20504;-61
2023/06/29 01:44:15;;;;;;;4.50;4.10;;;;;;;;;;5012553;28;20499;-61
2023/06/29 01:46:44;;;;;;;5.90;4.90;;;;;;;;;;5012578;28;20483;-61
2023/06/29 01:49:13;;;;;;;4.47;4.07;;;;;;;;;;5012570;28;20541;-59
2023/06/29 01:51:39;;;;;;;4.33;4.00;;;;;;;;;;5012588;28;20444;-59
2023/06/29 01:54:05;;;;;;;4.67;4.37;;;;;;;;;;5012524;28;20938;-59
2023/06/29 01:56:33;;;;;;;5.07;4.70;;;;;;;;;;5012393;28;20493;-59
2023/06/29 01:59:01;;;;;;;12.73;4.27;;;;;;;;;;5012494;28;20417;-59
2023/06/29 02:01:27;;;;;;;5.23;4.03;;;;;;;;;;5015611;28;20445;-61
2023/06/29 02:03:53;;;;;;;4.03;3.83;;;;;;;;;;5015685;28;20546;-65
2023/06/29 02:06:19;;;;;;;4.43;4.03;;;;;;;;;;5015781;28;20542;-65
2023/06/29 02:08:48;;;;;;;6.73;4.47;;;;;;;;;;5015317;28;20475;-64
2023/06/29 02:11:14;;;;;;;4.53;4.07;;;;;;;;;;5015663;28;21121;-64
2023/06/29 02:13:40;;;;;;;4.00;3.80;;;;;;;;;;5013812;28;20482;-64
2023/06/29 02:16:06;;;;;;;4.90;4.50;;;;;;;;;;5015636;28;20443;-64
2023/06/29 02:18:32;;;;;;;4.70;4.30;;;;;;;;;;5014095;28;20930;-64
2023/06/29 02:20:58;;;;;;;7.13;4.57;;;;;;;;;;5015283;28;20451;-65
2023/06/29 02:23:26;;;;;;;7.37;4.43;;;;;;;;;;5015378;28;20550;-64
2023/06/29 02:25:52;;;;;;;5.87;5.23;;;;;;;;;;5015203;28;20443;-64
2023/06/29 02:28:18;;;;;;;5.37;4.50;;;;;;;;;;5015589;28;20861;-64
2023/06/29 02:30:44;;;;;;;4.37;4.10;;;;;;;;;;5015186;28;20425;-64
2023/06/29 02:33:10;;;;;;;7.33;4.20;;;;;;;;;;5014001;28;20551;-64
2023/06/29 02:35:36;;;;;;;6.53;4.50;;;;;;;;;;5013931;28;20756;-64
2023/06/29 02:38:02;;;;;;;7.20;4.87;;;;;;;;;;5015296;28;20416;-64
2023/06/29 02:40:27;;;;;;;4.80;4.50;;;;;;;;;;5015384;28;20432;-64
2023/06/29 02:42:56;;;;;;;4.93;4.30;;;;;;;;;;5014977;28;20417;-65
2023/06/29 02:45:22;;;;;;;4.57;4.13;;;;;;;;;;5014990;28;20425;-65
2023/06/29 02:47:48;;;;;;;4.33;3.93;;;;;;;;;;5014804;28;20441;-65
2023/06/29 02:50:15;;;;;;;4.90;4.10;;;;;;;;;;5014848;28;20795;-65
2023/06/29 02:52:41;;;;;;;5.30;4.57;;;;;;;;;;5014833;28;20482;-65
2023/06/29 02:55:07;;;;;;;4.37;4.07;;;;;;;;;;5014891;28;20422;-65
2023/06/29 02:57:33;;;;;;;4.43;4.20;;;;;;;;;;5014946;28;20426;-65
2023/06/29 03:00:01;;;;;;;3.77;3.57;;;;;;;;;;5014832;28;20439;-65
2023/06/29 03:02:27;;;;;;;4.77;4.20;;;;;;;;;;5014824;28;20442;-65
2023/06/29 03:04:53;;;;;;;4.67;4.37;;;;;;;;;;5013493;28;20445;-65
2023/06/29 03:07:19;;;;;;;4.40;4.07;;;;;;;;;;5014701;28;20413;-65
2023/06/29 03:09:45;;;;;;;4.50;4.20;;;;;;;;;;5014640;28;20566;-65
2023/06/29 03:12:12;;;;;;;4.73;4.30;;;;;;;;;;5014338;28;20429;-65
2023/06/29 03:14:40;;;;;;;6.10;4.37;;;;;;;;;;5014439;28;20470;-65
2023/06/29 03:17:13;;;;;;;4.33;4.13;;;;;;;;;;5014459;28;20418;-65
2023/06/29 03:19:39;;;;;;;4.20;4.07;;;;;;;;;;5014678;28;20428;-65
2023/06/29 03:22:05;;;;;;;5.30;3.80;;;;;;;;;;5014218;28;20428;-65
2023/06/29 03:24:34;;;;;;;5.93;3.90;;;;;;;;;;5014409;28;20410;-65
2023/06/29 03:27:02;;;;;;;5.40;4.30;;;;;;;;;;5014227;28;20520;-65
2023/06/29 03:29:28;;;;;;;5.50;5.00;;;;;;;;;;5012787;28;20480;-65
2023/06/29 03:31:54;;;;;;;4.60;4.30;;;;;;;;;;5014179;28;20431;-65
2023/06/29 03:34:20;;;;;;;8.13;4.33;;;;;;;;;;5014689;28;20734;-65
2023/06/29 03:36:46;;;;;;;6.37;4.63;;;;;;;;;;5014171;28;20424;-65
2023/06/29 03:39:12;;;;;;;6.40;4.97;;;;;;;;;;5014089;28;20418;-65
2023/06/29 03:41:38;;;;;;;5.83;4.80;;;;;;;;;;5014244;28;20399;-65
2023/06/29 03:44:07;;;;;;;4.50;4.20;;;;;;;;;;5014036;28;20810;-65
2023/06/29 03:46:33;;;;;;;7.97;4.77;;;;;;;;;;5014010;28;20499;-65
2023/06/29 03:49:01;;;;;;;9.10;4.50;;;;;;;;;;5013969;28;20951;-65
2023/06/29 03:51:27;;;;;;;5.20;4.80;;;;;;;;;;5014042;28;20495;-65
2023/06/29 03:53:53;;;;;;;4.93;4.53;;;;;;;;;;5013856;28;20551;-65
2023/06/29 03:56:19;;;;;;;5.40;4.97;;;;;;;;;;5014001;28;20499;-65
2023/06/29 03:58:47;;;;;;;4.80;4.40;;;;;;;;;;5013824;28;20474;-65
2023/06/29 04:01:13;;;;;;;6.27;4.90;;;;;;;;;;5013471;28;20450;-65
2023/06/29 04:03:39;;;;;;;5.13;4.00;;;;;;;;;;5013577;28;20933;-65
2023/06/29 04:06:05;;;;;;;5.00;4.60;;;;;;;;;;5013712;28;20478;-65
2023/06/29 04:08:32;;;;;;;4.90;4.57;;;;;;;;;;5013343;28;20480;-65
2023/06/29 04:10:58;;;;;;;4.83;4.53;;;;;;;;;;5013424;28;20495;-65
2023/06/29 04:13:26;;;;;;;6.27;4.30;;;;;;;;;;5013333;28;20504;-65
2023/06/29 04:15:53;;;;;;;6.07;5.57;;;;;;;;;;5013056;28;20413;-65
2023/06/29 04:18:20;;;;;;;4.63;4.50;;;;;;;;;;5013432;28;20559;-65
2023/06/29 04:20:47;;;;;;;5.03;4.70;;;;;;;;;;5013290;28;20560;-65
2023/06/29 04:23:15;;;;;;;9.40;4.63;;;;;;;;;;5012579;28;20417;-65
2023/06/29 04:25:44;;;;;;;5.20;4.90;;;;;;;;;;5013312;28;20429;-65
2023/06/29 04:28:12;;;;;;;4.37;4.00;;;;;;;;;;5012754;28;20472;-65
2023/06/29 04:30:42;;;;;;;4.83;4.53;;;;;;;;;;5013138;28;20430;-65
2023/06/29 04:33:11;;;;;;;5.70;5.10;;;;;;;;;;5013083;28;20429;-65
2023/06/29 04:35:44;;;;;;;5.00;4.80;;;;;;;;;;5013262;28;20417;-65
2023/06/29 04:38:10;;;;;;;5.53;4.80;;;;;;;;;;5012795;28;20444;-65
2023/06/29 04:40:37;;;;;;;12.00;10.80;;;;;;;;;;5012002;28;20477;-65
2023/06/29 04:43:03;;;;;;;6.57;5.83;;;;;;;;;;5011596;28;20501;-65
2023/06/29 04:45:32;;;;;;;6.70;6.10;;;;;;;;;;5013058;28;20417;-65
2023/06/29 04:48:00;;;;;;;7.07;5.77;;;;;;;;;;5012876;28;20461;-65
2023/06/29 04:50:31;;;;;;;16.63;8.30;;;;;;;;;;5012899;28;20465;-65
2023/06/29 04:53:12;;;;;;;19.70;8.30;;;;;;;;;;5011637;28;20544;-65
2023/06/29 04:55:38;;;;;;;23.80;8.97;;;;;;;;;;5012839;28;20423;-65
2023/06/29 04:58:04;;;;;;;11.93;6.70;;;;;;;;;;5012650;28;20884;-65
2023/06/29 05:00:32;;;;;;;51.73;13.80;;;;;;;;;;5012884;28;20450;-65
2023/06/29 05:02:58;;;;;;;5.13;4.73;;;;;;;;;;5012613;28;20503;-65
2023/06/29 05:05:24;;;;;;;7.20;4.33;;;;;;;;;;5012751;28;20453;-65
2023/06/29 05:07:51;;;;;;;5.10;4.77;;;;;;;;;;5012641;28;20435;-65
2023/06/29 05:10:19;;;;;;;4.80;4.50;;;;;;;;;;5012490;28;20478;-65
2023/06/29 05:12:45;;;;;;;5.03;4.40;;;;;;;;;;5012668;28;20418;-64
2023/06/29 05:15:11;;;;;;;5.57;4.60;;;;;;;;;;5012416;28;20410;-64
2023/06/29 05:17:37;;;;;;;4.70;4.40;;;;;;;;;;5012643;28;20509;-64
2023/06/29 05:20:03;;;;;;;8.17;5.00;;;;;;;;;;5012574;28;20428;-64
2023/06/29 05:22:29;;;;;;;5.73;5.17;;;;;;;;;;5012441;28;20472;-64
2023/06/29 05:24:55;;;;;;;5.13;4.40;;;;;;;;;;5012479;28;20413;-64
2023/06/29 05:27:21;;;;;;;8.97;4.53;;;;;;;;;;5012440;28;20420;-64
2023/06/29 05:29:50;;;;;;;4.80;4.40;;;;;;;;;;5012435;28;20462;-64
2023/06/29 05:32:18;;;;;;;11.00;4.57;;;;;;;;;;5012393;28;20504;-64
2023/06/29 05:34:44;;;;;;;5.37;4.87;;;;;;;;;;5014550;28;20467;-64
2023/06/29 05:37:10;;;;;;;5.17;4.77;;;;;;;;;;5016427;28;20454;-64
2023/06/29 05:39:36;;;;;;;5.93;4.83;;;;;;;;;;5016155;28;20441;-64
2023/06/29 05:42:02;;;;;;;5.80;4.10;;;;;;;;;;5016451;28;20801;-64
2023/06/29 05:44:28;;;;;;;8.27;4.73;;;;;;;;;;5016245;28;20444;-64
2023/06/29 05:46:54;;;;;;;4.23;3.93;;;;;;;;;;5016152;28;20423;-64
2023/06/29 05:49:20;;;;;;;5.27;4.73;;;;;;;;;;5016179;28;20474;-64
2023/06/29 05:51:46;;;;;;;5.33;4.90;;;;;;;;;;5016276;28;20433;-65
2023/06/29 05:54:12;;;;;;;4.50;4.10;;;;;;;;;;5015794;28;20443;-65
2023/06/29 05:56:38;;;;;;;11.93;4.93;;;;;;;;;;5016007;28;20585;-65
2023/06/29 05:59:04;;;;;;;4.53;4.23;;;;;;;;;;5016315;28;20439;-65
2023/06/29 06:01:30;;;;;;;4.77;4.37;;;;;;;;;;5015642;28;20848;-65
2023/06/29 06:03:56;;;;;;;7.03;4.27;;;;;;;;;;5015866;28;20436;-65
2023/06/29 06:06:22;;;;;;;6.83;4.07;;;;;;;;;;5015867;28;20408;-65
2023/06/29 06:08:48;;;;;;;12.17;4.27;;;;;;;;;;5015524;28;20530;-65
2023/06/29 06:11:14;;;;;;;6.30;4.47;;;;;;;;;;5015689;28;20406;-65
2023/06/29 06:13:43;;;;;;;7.03;4.73;;;;;;;;;;5015366;28;20496;-65
2023/06/29 06:16:09;;;;;;;4.07;3.60;;;;;;;;;;5015641;28;20782;-65
2023/06/29 06:18:35;;;;;;;4.43;4.10;;;;;;;;;;5015468;28;20424;-65
2023/06/29 06:21:01;;;;;;;4.73;3.97;;;;;;;;;;5015634;28;20409;-65
2023/06/29 06:23:30;;;;;;;5.07;4.40;;;;;;;;;;5015429;28;20443;-65
2023/06/29 06:25:56;;;;;;;5.27;4.87;;;;;;;;;;5015478;28;20431;-65
2023/06/29 06:28:21;;;;;;;6.50;4.47;;;;;;;;;;5014049;28;20469;-65
2023/06/29 06:30:48;;;;;;;4.67;4.30;;;;;;;;;;5015605;28;20405;-65
2023/06/29 06:33:15;;;;;;;6.40;4.07;;;;;;;;;;5015312;28;20439;-65
2023/06/29 06:35:42;;;;;;;8.27;4.50;;;;;;;;;;5015515;28;20911;-65
2023/06/29 06:38:08;;;;;;;7.40;4.50;;;;;;;;;;5014987;28;20435;-65
2023/06/29 06:40:34;;;;;;;12.30;4.60;;;;;;;;;;5015605;28;20431;-65
2023/06/29 06:43:00;;;;;;;9.50;4.30;;;;;;;;;;5015138;28;20431;-65
2023/06/29 06:45:26;;;;;;;13.20;4.87;;;;;;;;;;5014270;28;20426;-65
2023/06/29 06:47:52;;;;;;;5.33;4.67;;;;;;;;;;5015118;28;20413;-65
2023/06/29 06:50:21;;;;;;;4.40;4.00;;;;;;;;;;5014871;28;20804;-65
2023/06/29 06:52:49;;;;;;;5.63;4.90;;;;;;;;;;5014946;28;20891;-65
2023/06/29 06:55:18;;;;;;;6.70;4.97;;;;;;;;;;5014770;28;20517;-64
2023/06/29 06:57:44;;;;;;;9.83;5.00;;;;;;;;;;5015010;28;20424;-64
2023/06/29 07:00:12;;;;;;;5.43;4.90;;;;;;;;;;5014857;28;20978;-64
2023/06/29 07:02:38;;;;;;;5.03;4.57;;;;;;;;;;5014607;28;20416;-64
2023/06/29 07:05:05;;;;;;;9.20;4.50;;;;;;;;;;5014829;28;20440;-65
2023/06/29 07:07:31;;;;;;;5.07;4.33;;;;;;;;;;5014897;28;20417;-65
2023/06/29 07:09:57;;;;;;;5.67;4.87;;;;;;;;;;5014707;28;20480;-65
2023/06/29 07:12:23;;;;;;;9.87;4.83;;;;;;;;;;5014695;28;20421;-65
2023/06/29 07:14:51;;;;;;;5.53;4.27;;;;;;;;;;5014613;28;20438;-65
2023/06/29 07:17:19;;;;;;;5.53;4.37;;;;;;;;;;5014649;28;20423;-64
2023/06/29 07:19:45;;;;;;;4.63;4.30;;;;;;;;;;5014469;28;20441;-65
2023/06/29 07:22:11;;;;;;;6.20;4.10;;;;;;;;;;5014582;28;20945;-65
2023/06/29 07:24:37;;;;;;;7.37;3.97;;;;;;;;;;5013234;28;20440;-65
2023/06/29 07:27:03;;;;;;;4.50;4.10;;;;;;;;;;5014575;28;20416;-64
2023/06/29 07:29:33;;;;;;;4.57;4.23;;;;;;;;;;5014178;28;20489;-64
2023/06/29 07:31:59;;;;;;;5.20;4.07;;;;;;;;;;5014480;28;20515;-64
2023/06/29 07:34:25;;;;;;;8.10;4.27;;;;;;;;;;5014349;28;20946;-65
2023/06/29 07:36:53;;;;;;;3.90;3.70;;;;;;;;;;5014200;28;20478;-64
2023/06/29 07:39:19;;;;;;;3.87;3.60;;;;;;;;;;5014104;28;20466;-65
2023/06/29 07:41:48;;;;;;;10.17;4.73;;;;;;;;;;5012738;28;20418;-65
2023/06/29 07:44:14;;;;;;;8.73;4.40;;;;;;;;;;5013984;28;20895;-65
2023/06/29 07:46:43;;;;;;;3.73;3.53;;;;;;;;;;5014304;28;20409;-65
2023/06/29 07:49:09;;;;;;;6.40;4.00;;;;;;;;;;5014113;28;20471;-65
2023/06/29 07:51:35;;;;;;;10.17;4.50;;;;;;;;;;5014005;28;20492;-65
2023/06/29 07:54:08;;;;;;;5.07;4.30;;;;;;;;;;5013992;28;20890;-65
2023/06/29 07:56:36;;;;;;;6.30;4.27;;;;;;;;;;5013553;28;20735;-65
2023/06/29 07:59:28;;;;;;;6.73;4.17;;;;;;;;;;5013086;28;20496;-65
2023/06/29 08:02:09;;;;;;;5.10;4.00;;;;;;;;;;5013641;28;20498;-65
2023/06/29 08:04:35;;;;;;;8.07;3.60;;;;;;;;;;5013244;28;20435;-65
2023/06/29 08:07:01;;;;;;;9.67;4.20;;;;;;;;;;5013596;28;20422;-65
2023/06/29 08:09:27;;;;;;;4.63;3.67;;;;;;;;;;5013380;28;20469;-65
2023/06/29 08:11:53;;;;;;;7.97;3.30;;;;;;;;;;5013509;28;20919;-65
2023/06/29 08:14:19;;;;;;;5.30;3.30;;;;;;;;;;5013673;28;20464;-65
2023/06/29 08:16:45;;;;;;;5.17;3.60;;;;;;;;;;5013551;28;20417;-64
2023/06/29 08:19:11;;;;;;;5.80;3.97;;;;;;;;;;5013683;28;20419;-64
2023/06/29 08:21:41;;;;;;;6.40;3.50;;;;;;;;;;5013589;28;20431;-64
2023/06/29 08:24:08;;;;;;;5.17;3.50;;;;;;;;;;5013617;28;20495;-65
2023/06/29 08:26:34;;;;;;;4.17;3.03;;;;;;;;;;5013362;28;20821;-65
2023/06/29 08:29:00;;;;;;;5.67;4.00;;;;;;;;;;5012028;28;20468;-65
2023/06/29 08:31:27;;;;;;;9.50;3.70;;;;;;;;;;5013252;28;20480;-65
2023/06/29 08:33:53;;;;;;;4.27;3.57;;;;;;;;;;5013226;28;20417;-65
2023/06/29 08:36:19;;;;;;;7.33;3.50;;;;;;;;;;5013388;28;20406;-65
2023/06/29 08:38:46;;;;;;;3.27;3.00;;;;;;;;;;5011706;28;20430;-65
2023/06/29 08:41:13;;;;;;;12.10;3.27;;;;;;;;;;5013107;28;20451;-65
2023/06/29 08:43:40;;;;;;;4.70;3.37;;;;;;;;;;5013152;28;20833;-65
2023/06/29 08:46:09;;;;;;;7.00;3.50;;;;;;;;;;5013037;28;20441;-65
2023/06/29 08:48:35;;;;;;;3.47;3.27;;;;;;;;;;5012898;28;20509;-65
2023/06/29 08:51:07;;;;;;;4.57;3.27;;;;;;;;;;5012940;28;20903;-65
2023/06/29 08:53:36;;;;;;;5.30;3.50;;;;;;;;;;5013174;28;20944;-65
2023/06/29 08:56:03;;;;;;;5.13;2.97;;;;;;;;;;5012700;28;20468;-65
2023/06/29 08:58:29;;;;;;;7.03;2.90;;;;;;;;;;5011506;28;20899;-65
2023/06/29 09:00:58;;;;;;;14.13;3.50;;;;;;;;;;5012648;28;20456;-64
2023/06/29 09:03:26;;;;;;;3.00;2.80;;;;;;;;;;5012960;28;20463;-65
2023/06/29 09:05:54;;;;;;;4.13;3.10;;;;;;;;;;5012749;28;20463;-65
2023/06/29 09:08:20;;;;;;;4.43;4.03;;;;;;;;;;5011006;28;20873;-65
2023/06/29 09:10:51;;;;;;;5.57;3.60;;;;;;;;;;5011522;28;20448;-65
2023/06/29 09:13:19;;;;;;;3.40;3.10;;;;;;;;;;5011655;28;20408;-65
2023/06/29 09:15:45;;;;;;;4.53;3.37;;;;;;;;;;5012749;28;20786;-65
2023/06/29 09:18:12;;;;;;;5.90;3.33;;;;;;;;;;5012619;28;20424;-65
2023/06/29 09:20:41;;;;;;;3.90;3.27;;;;;;;;;;5011422;28;20424;-65
2023/06/29 09:23:07;;;;;;;9.77;3.60;;;;;;;;;;5012605;28;20888;-65
2023/06/29 09:25:34;;;;;;;3.90;3.60;;;;;;;;;;5012524;28;20447;-65
2023/06/29 09:28:06;;;;;;;5.63;3.40;;;;;;;;;;5012488;28;20474;-65
2023/06/29 09:30:39;;;;;;;5.03;4.17;;;;;;;;;;5012498;28;20466;-65
2023/06/29 09:33:09;;;;;;;3.80;3.50;;;;;;;;;;5012461;28;20431;-65
2023/06/29 09:35:37;;;;;;;6.00;3.60;;;;;;;;;;5012675;28;20424;-65
2023/06/29 09:38:05;;;;;;;7.10;3.93;;;;;;;;;;5012351;28;20431;-65
2023/06/29 09:40:31;;;;;;;4.47;2.83;;;;;;;;;;5012566;28;20435;-65
2023/06/29 09:42:57;;;;;;;4.97;2.90;;;;;;;;;;5012569;28;20393;-65
2023/06/29 09:45:27;;;;;;;6.07;3.23;;;;;;;;;;5012524;28;20402;-65
2023/06/29 09:47:53;;;;;;;3.63;2.93;;;;;;;;;;5012514;28;20551;-65
2023/06/29 09:50:20;;;;;;;5.10;3.60;;;;;;;;;;5012546;28;20471;-65
2023/06/29 09:52:51;;;;;;;7.20;3.50;;;;;;;;;;5012458;28;20419;-64
2023/06/29 09:55:17;;;;;;;3.87;3.20;;;;;;;;;;5012473;28;20422;-64
2023/06/29 09:57:45;;;;;;;5.17;3.60;;;;;;;;;;5012245;28;20443;-65
2023/06/29 10:00:13;;;;;;;3.73;2.93;;;;;;;;;;5012326;28;20423;-65
2023/06/29 10:02:42;;;;;;;10.03;2.93;;;;;;;;;;5012251;28;20441;-65
2023/06/29 10:05:13;;;;;;;3.37;3.03;;;;;;;;;;5012596;28;20408;-65
2023/06/29 10:07:44;;;;;;;5.90;3.20;;;;;;;;;;5011889;28;20464;-60
2023/06/29 10:10:18;;;;;;;3.43;3.17;;;;;;;;;;5012020;28;20486;-60
2023/06/29 10:12:49;;;;;;;7.73;2.67;;;;;;;;;;5012049;28;20443;-60
2023/06/29 10:15:19;;;;;;;2.73;2.50;;;;;;;;;;5012054;28;20452;-60
2023/06/29 10:17:49;;;;;;;2.50;2.40;;;;;;;;;;5012052;28;20872;-60
2023/06/29 10:20:16;;;;;;;4.17;2.70;;;;;;;;;;5011911;28;20931;-60
2023/06/29 10:22:45;;;;;;;3.10;2.90;;;;;;;;;;5015390;28;20819;-60
2023/06/29 10:25:13;;;;;;;7.43;2.87;;;;;;;;;;5015533;28;20470;-60
2023/06/29 10:27:40;;;;;;;6.83;3.17;;;;;;;;;;5015438;28;20444;-60
2023/06/29 10:30:06;;;;;;;3.37;3.03;;;;;;;;;;5015387;28;20472;-60
2023/06/29 10:32:36;;;;;;;5.97;3.57;;;;;;;;;;5015393;28;20454;-60
2023/06/29 10:35:02;;;;;;;5.23;3.13;;;;;;;;;;5015287;28;20440;-60
2023/06/29 10:37:32;;;;;;;4.23;2.67;;;;;;;;;;5015335;28;20413;-60
2023/06/29 10:39:58;;;;;;;7.00;3.30;;;;;;;;;;5014930;28;20665;-60
2023/06/29 10:42:24;;;;;;;3.60;2.93;;;;;;;;;;5013863;28;20425;-60
2023/06/29 10:44:50;;;;;;;3.37;3.17;;;;;;;;;;5015214;28;20806;-60
2023/06/29 10:47:29;;;;;;;3.47;3.17;;;;;;;;;;5015256;28;20487;-60
2023/06/29 10:50:10;;;;;;;4.70;2.97;;;;;;;;;;5015303;28;20464;-60
2023/06/29 10:52:37;;;;;;;9.40;2.60;;;;;;;;;;5015037;28;20432;-62
2023/06/29 10:55:28;;;;;;;2.87;2.60;;;;;;;;;;5015108;28;20971;-61
2023/06/29 10:57:56;;;;;;;3.00;2.50;;;;;;;;;;5015054;28;20409;-60
2023/06/29 11:00:25;;;;;;;3.90;2.80;;;;;;;;;;5013678;28;20467;-62
2023/06/29 11:02:54;;;;;;;3.43;2.67;;;;;;;;;;5014951;28;20908;-60
2023/06/29 11:05:21;;;;;;;3.13;2.53;;;;;;;;;;5014674;28;20420;-60
2023/06/29 11:07:53;;;;;;;3.27;2.30;;;;;;;;;;5014909;28;20445;-60
2023/06/29 11:10:22;;;;;;;2.80;2.60;;;;;;;;;;5014576;28;20951;-60
2023/06/29 11:12:49;;;;;;;3.10;2.90;;;;;;;;;;5014809;28;20504;-60
2023/06/29 11:15:18;;;;;;;2.43;2.33;;;;;;;;;;5014126;28;20444;-60
2023/06/29 11:17:45;;;;;;;3.63;2.70;;;;;;;;;;5014376;28;20803;-60
2023/06/29 11:20:13;;;;;;;3.10;2.90;;;;;;;;;;5014979;28;20417;-60
2023/06/29 11:22:39;;;;;;;4.13;3.67;;;;;;;;;;5014351;28;20413;-60
2023/06/29 11:25:06;;;;;;;6.67;2.93;;;;;;;;;;5014401;28;20416;-60
2023/06/29 11:27:34;;;;;;;5.30;3.60;;;;;;;;;;5014202;28;20449;-60
2023/06/29 11:30:04;;;;;;;7.17;3.13;;;;;;;;;;5014199;28;20952;-60
2023/06/29 11:32:30;;;;;;;6.20;3.73;;;;;;;;;;5014179;28;20416;-60
2023/06/29 11:34:57;;;;;;;8.00;3.77;;;;;;;;;;5014462;28;20409;-60
2023/06/29 11:37:24;;;;;;;4.30;3.53;;;;;;;;;;5014223;28;20416;-60
2023/06/29 11:39:50;;;;;;;3.90;3.70;;;;;;;;;;5014200;28;20420;-60
2023/06/29 11:42:18;;;;;;;5.37;3.20;;;;;;;;;;5012594;28;20421;-60
2023/06/29 11:44:45;;;;;;;3.90;3.20;;;;;;;;;;5014052;28;20435;-60
2023/06/29 11:47:13;;;;;;;4.50;3.40;;;;;;;;;;5014049;28;20433;-60
2023/06/29 11:49:39;;;;;;;13.23;4.30;;;;;;;;;;5013850;28;20559;-60
2023/06/29 11:52:06;;;;;;;6.30;3.60;;;;;;;;;;5014040;28;20515;-61
2023/06/29 11:54:32;;;;;;;9.47;3.27;;;;;;;;;;5013794;28;20425;-60
2023/06/29 11:56:59;;;;;;;7.40;4.37;;;;;;;;;;5013972;28;20433;-60
2023/06/29 11:59:25;;;;;;;5.27;3.97;;;;;;;;;;5013522;28;20554;-60
2023/06/29 12:01:51;;;;;;;5.93;3.13;;;;;;;;;;5013687;28;20511;-60
2023/06/29 12:04:17;;;;;;;9.97;4.07;;;;;;;;;;5013810;28;20844;-60
2023/06/29 12:06:56;;;;;;;3.90;3.60;;;;;;;;;;5013599;28;20507;-60
2023/06/29 12:09:30;;;;;;;3.83;3.53;;;;;;;;;;5013200;28;20504;-60
2023/06/29 12:12:03;;;;;;;3.80;3.53;;;;;;;;;;5013791;28;20502;-60
2023/06/29 12:14:35;;;;;;;3.07;2.80;;;;;;;;;;5013663;28;20491;-60
2023/06/29 12:17:01;;;;;;;5.03;3.57;;;;;;;;;;5013682;28;20444;-60
2023/06/29 12:19:28;;;;;;;11.20;4.17;;;;;;;;;;5013422;28;20508;-60
2023/06/29 12:21:54;;;;;;;6.53;4.03;;;;;;;;;;5013459;28;20495;-60
2023/06/29 12:24:20;;;;;;;3.47;3.20;;;;;;;;;;5013384;28;20433;-60
2023/06/29 12:26:48;;;;;;;4.33;3.43;;;;;;;;;;5013164;28;20417;-60
2023/06/29 12:29:14;;;;;;;4.23;3.93;;;;;;;;;;5013642;28;20453;-60
2023/06/29 12:31:42;;;;;;;5.87;4.20;;;;;;;;;;5013244;28;20405;-60
2023/06/29 12:34:10;;;;;;;9.40;4.40;;;;;;;;;;5013423;28;20424;-60
2023/06/29 12:36:45;;;;;;;6.40;3.73;;;;;;;;;;5013128;28;20412;-60
2023/06/29 12:39:11;;;;;;;4.50;4.23;;;;;;;;;;5013091;28;20444;-60
2023/06/29 12:41:37;;;;;;;5.50;5.00;;;;;;;;;;5011809;28;20476;-60
2023/06/29 12:44:05;;;;;;;4.93;4.63;;;;;;;;;;5012238;28;20428;-60
2023/06/29 12:46:31;;;;;;;6.50;4.23;;;;;;;;;;5012857;28;20420;-60
2023/06/29 12:49:00;;;;;;;6.57;4.07;;;;;;;;;;5011633;28;20467;-60
2023/06/29 12:51:28;;;;;;;3.90;3.50;;;;;;;;;;5013060;28;20210;-60
2023/06/29 12:53:54;;;;;;;9.93;4.10;;;;;;;;;;5012828;28;20471;-60
2023/06/29 12:56:25;;;;;;;4.00;3.70;;;;;;;;;;5012693;28;20413;-60
2023/06/29 12:58:51;;;;;;;5.80;4.63;;;;;;;;;;5012705;28;21003;-60
2023/06/29 13:01:17;;;;;;;4.70;4.30;;;;;;;;;;5012611;28;20500;-60
2023/06/29 13:03:43;;;;;;;4.57;4.27;;;;;;;;;;5012632;28;20903;-60
2023/06/29 13:06:08;;;;;;;9.47;3.80;;;;;;;;;;5012848;28;20475;-62
2023/06/29 13:08:34;;;;;;;5.10;4.17;;;;;;;;;;5012875;28;20225;-60
2023/06/29 13:11:00;;;;;;;6.90;3.80;;;;;;;;;;5012686;28;20437;-60
2023/06/29 13:13:27;;;;;;;5.03;4.50;;;;;;;;;;5012753;28;20409;-60
2023/06/29 13:15:52;;;;;;;4.90;4.50;;;;;;;;;;5012437;28;20431;-60
2023/06/29 13:18:18;;;;;;;8.00;4.33;;;;;;;;;;5012491;28;20980;-60
2023/06/29 13:20:44;;;;;;;6.00;5.00;;;;;;;;;;5012461;28;20412;-60
2023/06/29 13:23:10;;;;;;;6.07;4.43;;;;;;;;;;5012542;28;20460;-60
2023/06/29 13:25:36;;;;;;;4.73;4.43;;;;;;;;;;5011275;28;20503;-60
2023/06/29 13:28:02;;;;;;;4.73;4.50;;;;;;;;;;5012480;28;20435;-60
2023/06/29 13:30:28;;;;;;;5.10;4.70;;;;;;;;;;5012377;28;20835;-60
2023/06/29 13:32:59;;;;;;;5.03;4.53;;;;;;;;;;5012450;28;20470;-60
2023/06/29 13:35:25;;;;;;;5.10;4.63;;;;;;;;;;5033366;28;20413;-62
2023/06/29 13:37:51;;;;;;;13.00;4.43;;;;;;;;;;5036990;28;20436;-60
2023/06/29 13:40:17;;;;;;;19.57;4.60;;;;;;;;;;5037346;28;20435;-60
2023/06/29 13:42:43;;;;;;;7.20;4.40;;;;;;;;;;5030618;28;20449;-61
2023/06/29 13:45:11;;;;;;;4.47;4.10;;;;;;;;;;5015686;28;20511;-60
2023/06/29 13:47:39;;;;;;;5.60;4.50;;;;;;;;;;5012791;28;20494;-60
2023/06/29 13:50:05;;;;;;;5.30;4.80;;;;;;;;;;5012449;28;20466;-61
2023/06/29 13:52:31;;;;;;;6.63;3.90;;;;;;;;;;5011264;28;20444;-61
2023/06/29 13:54:57;;;;;;;4.77;4.37;;;;;;;;;;5011878;28;20771;-60
2023/06/29 13:57:23;;;;;;;7.30;4.70;;;;;;;;;;5016172;28;20432;-60
2023/06/29 13:59:49;;;;;;;5.60;4.80;;;;;;;;;;5016033;28;20401;-60
2023/06/29 14:02:15;;;;;;;13.03;6.37;;;;;;;;;;5016097;28;20454;-60
2023/06/29 14:04:44;;;;;;;9.67;7.60;;;;;;;;;;5016002;28;20421;-60
2023/06/29 14:07:10;;;;;;;5.07;4.67;;;;;;;;;;5015915;28;20448;-60
2023/06/29 14:09:35;;;;;;;4.80;4.50;;;;;;;;;;5015560;28;20915;-60
2023/06/29 14:12:02;;;;;;;11.30;4.80;;;;;;;;;;5015821;28;20415;-60
2023/06/29 14:14:28;;;;;;;4.67;4.30;;;;;;;;;;5015748;28;20766;-60
2023/06/29 14:16:54;;;;;;;8.40;5.13;;;;;;;;;;5016016;28;20416;-60
2023/06/29 14:19:22;;;;;;;13.67;4.77;;;;;;;;;;5015631;28;20421;-60
2023/06/29 14:21:48;;;;;;;6.87;4.60;;;;;;;;;;5015609;28;20911;-60
2023/06/29 14:24:14;;;;;;;9.93;4.50;;;;;;;;;;5015618;28;20519;-60
2023/06/29 14:26:40;;;;;;;5.40;4.97;;;;;;;;;;5015464;28;20760;-60
2023/06/29 14:29:06;;;;;;;9.50;4.70;;;;;;;;;;5015271;28;20484;-60
2023/06/29 14:31:35;;;;;;;5.30;4.80;;;;;;;;;;5015764;28;20432;-60
2023/06/29 14:34:01;;;;;;;6.97;5.63;;;;;;;;;;5015373;28;20433;-60
2023/06/29 14:36:27;;;;;;;5.63;5.13;;;;;;;;;;5015355;28;20416;-60
2023/06/29 14:38:53;;;;;;;7.00;4.93;;;;;;;;;;5015321;28;20852;-60
2023/06/29 14:41:19;;;;;;;5.90;5.40;;;;;;;;;;5015233;28;20904;-60
2023/06/29 14:43:45;;;;;;;6.03;5.47;;;;;;;;;;5015135;28;20413;-60